»·PEaware :: UPS1030 KPDX-KSMF

UPS1030 :: KPDX-KSMF

FLIGHT INFORMATION

Flight Status: Arrived
Operator:
United Parcel Service
More flights by this operator :: More flights under this callsign
Pilot: Adam H. (32152)
Aircraft: AIRBUS A300B4-600
(A306)
More flights by this aircraft type
Origin: KPDX Portland Intl
United States
Destination: KSMF Sacramento Intl
United States
More flights between these airports :: More routes between these airports
Route: +HRMNS5 HRMNS J189 LMT TUDOR2
File this flight plan on PilotEdge
Remarks: RMK / SIMBRIEF
Altitude:
(Current/Filed)
35,000ft
Speed:
(Current/Filed)
441kts
Departed: 30-Oct-20 06:48 PM
Arrived: 30-Oct-20 07:51 PM
Distance/Time
Traveled:
416nm/1:02
Distance/Time
To Go:
Arrived

Flight Plot

Page will automatically refresh every two minutes.

Flight plan parsing failed; only flown route is shown


Map Options




Map Legend


Flown Route
Filed Route
Departure Airport
Arrival Airport
Navaid (VOR, NDB)
Fix

Horizontal Profiles

Position Reports

Time Latitude Longitude Heading Altitude Ground
Speed
30-Oct-20 17:50 45.584571 -122.608276 134 26ft 0kts
30-Oct-20 17:50 45.584571 -122.608276 134 26ft 0kts
30-Oct-20 17:52 45.584571 -122.608276 134 26ft 0kts
30-Oct-20 17:52 45.584571 -122.608276 134 26ft 0kts
30-Oct-20 17:54 45.584571 -122.608276 134 26ft 0kts
30-Oct-20 17:58 45.584571 -122.608276 134 26ft 0kts
30-Oct-20 17:59 45.584571 -122.608276 134 26ft 0kts
30-Oct-20 18:00 45.584571 -122.608276 134 26ft 0kts
30-Oct-20 18:07 45.584571 -122.608276 134 26ft 0kts
30-Oct-20 18:08 45.584571 -122.608276 134 26ft 0kts
30-Oct-20 18:09 45.584571 -122.608276 134 26ft 0kts
30-Oct-20 18:10 45.584571 -122.608276 134 26ft 0kts
30-Oct-20 18:11 45.584571 -122.608276 134 26ft 0kts
30-Oct-20 18:12 45.584571 -122.608276 134 26ft 0kts
30-Oct-20 18:13 45.584571 -122.608276 134 26ft 0kts
30-Oct-20 18:14 45.584571 -122.608276 134 26ft 0kts
30-Oct-20 18:15 45.584571 -122.608276 134 26ft 0kts
30-Oct-20 18:16 45.584571 -122.608276 134 26ft 0kts
30-Oct-20 18:17 45.584571 -122.608276 134 26ft 0kts
30-Oct-20 18:18 45.584571 -122.608276 134 26ft 0kts
30-Oct-20 18:19 45.584571 -122.608276 134 26ft 0kts
30-Oct-20 18:20 45.584571 -122.608276 134 26ft 0kts
30-Oct-20 18:21 45.584571 -122.608276 134 26ft 0kts
30-Oct-20 18:22 45.584571 -122.608276 134 26ft 0kts
30-Oct-20 18:23 45.584571 -122.608276 134 26ft 0kts
30-Oct-20 18:24 45.584571 -122.608276 134 26ft 0kts
30-Oct-20 18:25 45.584571 -122.608276 134 26ft 0kts
30-Oct-20 18:26 45.584571 -122.608276 134 26ft 0kts
30-Oct-20 18:27 45.584571 -122.608276 134 26ft 0kts
30-Oct-20 18:28 45.584571 -122.608276 134 26ft 0kts
30-Oct-20 18:29 45.584571 -122.608276 134 26ft 0kts
30-Oct-20 18:30 45.584571 -122.608276 134 26ft 0kts
30-Oct-20 18:31 45.584571 -122.608276 134 26ft 0kts
30-Oct-20 18:32 45.584571 -122.608276 134 26ft 0kts
30-Oct-20 18:33 45.584831 -122.608645 129 26ft 2kts
30-Oct-20 18:34 45.584826 -122.609453 46 26ft 0kts
30-Oct-20 18:35 45.584775 -122.609522 43 26ft 0kts
30-Oct-20 18:36 45.584775 -122.609522 43 26ft 0kts
30-Oct-20 18:37 45.584775 -122.609522 43 26ft 0kts
30-Oct-20 18:38 45.584775 -122.609522 43 26ft 0kts
30-Oct-20 18:39 45.584877 -122.609383 43 26ft 3kts
30-Oct-20 18:40 45.586786 -122.608578 48 26ft 10kts
30-Oct-20 18:41 45.587332 -122.604604 118 26ft 10kts
30-Oct-20 18:42 45.585051 -122.598794 118 26ft 18kts
30-Oct-20 18:43 45.582740 -122.592784 118 26ft 16kts
30-Oct-20 18:44 45.581304 -122.589193 119 26ft 0kts
30-Oct-20 18:45 45.580950 -122.588294 118 26ft 8kts
30-Oct-20 18:46 45.580540 -122.584549 335 26ft 8kts
30-Oct-20 18:47 45.591026 -122.610648 300 118ft 197kts
30-Oct-20 18:48 45.620777 -122.680671 306 3140ft 232kts
30-Oct-20 18:49 45.655885 -122.764310 299 6488ft 263kts
30-Oct-20 18:50 45.664160 -122.861028 257 10760ft 270kts
30-Oct-20 18:51 45.599831 -122.931561 175 12643ft 402kts
30-Oct-20 18:52 45.496057 -122.861353 146 16804ft 418kts
30-Oct-20 18:53 45.389330 -122.764931 150 18867ft 475kts
30-Oct-20 18:54 45.272893 -122.664894 150 21738ft 493kts
30-Oct-20 18:55 45.153273 -122.562668 150 23770ft 507kts
30-Oct-20 18:56 45.030318 -122.459154 152 25090ft 513kts
30-Oct-20 18:57 44.902407 -122.374357 172 25943ft 504kts
30-Oct-20 18:58 44.762638 -122.342394 173 26735ft 509kts
30-Oct-20 18:59 44.621676 -122.308142 173 27517ft 512kts
30-Oct-20 19:00 44.480282 -122.273606 173 28308ft 517kts
30-Oct-20 19:01 44.336623 -122.238556 172 29385ft 518kts
30-Oct-20 19:02 44.193704 -122.203798 172 31275ft 517kts
30-Oct-20 19:03 44.051285 -122.169312 172 33815ft 513kts
30-Oct-20 19:04 43.909515 -122.135169 172 35269ft 516kts
30-Oct-20 19:05 43.767531 -122.101128 172 35254ft 516kts
30-Oct-20 19:06 43.626110 -122.067389 172 35248ft 515kts
30-Oct-20 19:07 43.483592 -122.033557 172 35251ft 514kts
30-Oct-20 19:08 43.342433 -122.000212 172 35254ft 513kts
30-Oct-20 19:09 43.200600 -121.966872 173 35257ft 512kts
30-Oct-20 19:10 43.059781 -121.933933 172 35231ft 511kts
30-Oct-20 19:11 42.918590 -121.901055 172 35225ft 510kts
30-Oct-20 19:12 42.778099 -121.868497 171 35217ft 508kts
30-Oct-20 19:13 42.638153 -121.836219 171 35208ft 507kts
30-Oct-20 19:14 42.498889 -121.804245 171 35192ft 507kts
30-Oct-20 19:15 42.359829 -121.772462 171 35193ft 505kts
30-Oct-20 19:16 42.220281 -121.740714 171 35195ft 505kts
30-Oct-20 19:17 42.080211 -121.722166 184 35196ft 501kts
30-Oct-20 19:18 41.939686 -121.725046 181 35190ft 501kts
30-Oct-20 19:19 41.799531 -121.724947 181 35181ft 501kts
30-Oct-20 19:20 41.659211 -121.724533 181 35182ft 501kts
30-Oct-20 19:21 41.518758 -121.724017 181 35183ft 501kts
30-Oct-20 19:22 41.378838 -121.723458 181 35172ft 501kts
30-Oct-20 19:23 41.238461 -121.722870 181 35140ft 500kts
30-Oct-20 19:24 41.098761 -121.722272 181 35141ft 500kts
30-Oct-20 19:25 40.959396 -121.721652 181 35137ft 487kts
30-Oct-20 19:26 40.822923 -121.721054 181 35135ft 488kts
30-Oct-20 19:27 40.689265 -121.720423 181 34356ft 457kts
30-Oct-20 19:28 40.561648 -121.719861 180 31607ft 459kts
30-Oct-20 19:29 40.433767 -121.719263 179 29196ft 454kts
30-Oct-20 19:30 40.307504 -121.709296 176 26891ft 449kts
30-Oct-20 19:31 40.174551 -121.697703 177 24396ft 477kts
30-Oct-20 19:32 40.042666 -121.686236 177 23725ft 464kts
30-Oct-20 19:33 39.914902 -121.675189 177 21064ft 451kts
30-Oct-20 19:34 39.790709 -121.664540 177 18444ft 445kts
30-Oct-20 19:35 39.670779 -121.654231 177 15362ft 398kts
30-Oct-20 19:36 39.559646 -121.644755 178 12381ft 402kts
30-Oct-20 19:37 39.456182 -121.635852 178 11220ft 324kts
30-Oct-20 19:38 39.369478 -121.628493 177 9807ft 301kts
30-Oct-20 19:39 39.286102 -121.621479 177 8537ft 293kts
30-Oct-20 19:41 39.204943 -121.614678 177 7268ft 286kts
30-Oct-20 19:42 39.126265 -121.608133 176 6098ft 270kts
30-Oct-20 19:43 39.054499 -121.602154 176 4572ft 250kts
30-Oct-20 19:44 38.987791 -121.596598 176 3695ft 225kts
30-Oct-20 19:45 38.931156 -121.596732 181 2995ft 189kts
30-Oct-20 19:46 38.879072 -121.598200 181 2978ft 169kts
30-Oct-20 19:47 38.832753 -121.599015 181 2507ft 168kts
30-Oct-20 19:48 38.786034 -121.599778 181 1607ft 165kts
30-Oct-20 19:49 38.743890 -121.600452 180 646ft 144kts
30-Oct-20 19:50 38.703726 -121.601113 180 37ft 141kts
30-Oct-20 19:51 38.683840 -121.600390 92 29ft 13kts
30-Oct-20 19:52 38.685157 -121.598756 1 29ft 5kts
30-Oct-20 19:53 38.685880 -121.598791 357 29ft 4kts
30-Oct-20 19:54 38.689298 -121.598756 1 31ft 18kts
30-Oct-20 19:55 38.690039 -121.596904 151 32ft 0kts
30-Oct-20 19:56 38.690072 -121.596721 51 32ft 0kts

Navigation Log

Ident Type
Flight plan parsing failed, navigation log unavailable